Bougainville Reef, Australia
Current Conditions -  °F | °C
As of 6:00 PM on Monday 26 Jan 2015 (Local Time) from YBCS Reporting Station
Broken Clouds Broken Clouds  
Wind Chill: 88°   Ceiling: 28000
Heat Index: 102°   Visibility: 6mi
Dew Point: 79°   Wind: 6mph
Humidity: 75%   Direction: 330°NNW
Pressure: 29.59"   Gusts: NA
Location:  15.5°S, 147.12°E
Report Text: YBCS 260800Z 33005KT 9999 FEW025 BKN280 FEW026TCU 31/26 Q1002
Loading
Personal Weather Stations






























Interactive Weather Map New forecast layout! Learn more

10-Day Weather Forecast

Advertisements
Track Severe Weather on mobile